createdAt,value
2018-03-30T00:01:58.736Z,12.30
2018-03-30T00:04:32.729Z,13.53
2018-03-30T00:07:07.895Z,14.13
2018-03-30T00:09:53.760Z,23.43
2018-03-30T00:12:28.483Z,16.60
2018-03-30T00:15:03.006Z,14.23
2018-03-30T00:17:37.736Z,10.93
2018-03-30T00:20:11.746Z,12.57
2018-03-30T00:22:45.662Z,11.07
2018-03-30T00:25:20.072Z,12.60
2018-03-30T00:27:53.879Z,11.13
2018-03-30T00:30:28.100Z,11.37
2018-03-30T00:33:01.816Z,10.67
2018-03-30T00:35:37.240Z,10.60
2018-03-30T00:38:11.358Z,9.40
2018-03-30T00:40:46.861Z,13.00
2018-03-30T00:43:20.619Z,11.53
2018-03-30T00:45:54.938Z,15.27
2018-03-30T00:48:29.456Z,17.97
2018-03-30T00:51:04.347Z,15.23
2018-03-30T00:53:51.060Z,16.30
2018-03-30T00:56:25.081Z,12.47
2018-03-30T00:58:59.720Z,13.20
2018-03-30T01:01:34.016Z,13.13
2018-03-30T01:04:10.085Z,11.30
2018-03-30T01:06:45.121Z,13.63
2018-03-30T01:09:19.074Z,13.77
2018-03-30T01:11:53.964Z,11.97
2018-03-30T01:14:27.758Z,14.13
2018-03-30T01:17:01.601Z,16.90
2018-03-30T01:19:35.550Z,14.83
2018-03-30T01:22:09.810Z,12.63
2018-03-30T01:24:44.020Z,15.50
2018-03-30T01:27:18.431Z,16.43
2018-03-30T01:29:52.940Z,14.17
2018-03-30T01:32:29.292Z,16.33
2018-03-30T01:35:03.816Z,16.80
2018-03-30T01:37:38.242Z,15.20
2018-03-30T01:40:12.479Z,15.03
2018-03-30T01:42:47.809Z,14.33
2018-03-30T01:45:21.815Z,14.90
2018-03-30T01:47:56.327Z,18.23
2018-03-30T01:50:31.377Z,19.53
2018-03-30T01:53:05.484Z,13.43
2018-03-30T01:55:39.691Z,16.33
2018-03-30T01:58:14.935Z,15.87
2018-03-30T02:00:49.440Z,17.23
2018-03-30T02:03:24.193Z,19.17
2018-03-30T02:05:58.717Z,15.93
2018-03-30T02:08:32.879Z,17.80
2018-03-30T02:11:07.634Z,21.03
2018-03-30T02:13:41.960Z,21.63
2018-03-30T02:16:17.088Z,21.70
2018-03-30T02:18:51.292Z,25.03
2018-03-30T02:21:25.097Z,19.60
2018-03-30T02:23:59.356Z,19.23
2018-03-30T02:26:34.057Z,16.30
2018-03-30T02:29:08.655Z,17.93
2018-03-30T02:31:43.409Z,15.90
2018-03-30T02:34:18.421Z,19.67
2018-03-30T02:36:52.956Z,18.20
2018-03-30T02:39:27.383Z,19.17
2018-03-30T02:42:01.384Z,19.23
2018-03-30T02:44:35.706Z,21.17
2018-03-30T02:47:10.232Z,18.73
2018-03-30T02:49:46.197Z,21.80
2018-03-30T02:52:19.988Z,22.07
2018-03-30T02:54:53.902Z,19.83
2018-03-30T02:57:28.013Z,21.83
2018-03-30T03:00:02.621Z,19.97
2018-03-30T03:02:36.763Z,19.70
2018-03-30T03:05:10.865Z,19.20
2018-03-30T03:07:45.011Z,20.70
2018-03-30T03:10:19.591Z,19.83
2018-03-30T03:12:53.528Z,18.10
2018-03-30T03:15:29.341Z,19.50
2018-03-30T03:18:03.686Z,20.93
2018-03-30T03:20:38.070Z,19.10
2018-03-30T03:23:11.679Z,20.63
2018-03-30T03:25:45.820Z,19.00
2018-03-30T03:28:19.696Z,19.07
2018-03-30T03:30:53.931Z,20.93
2018-03-30T03:33:28.227Z,23.27
2018-03-30T03:36:02.148Z,23.47
2018-03-30T03:38:36.683Z,20.03
2018-03-30T03:41:10.990Z,19.77
2018-03-30T03:43:45.286Z,20.93
2018-03-30T03:46:18.987Z,18.67
2018-03-30T03:48:53.425Z,20.83
2018-03-30T03:51:27.341Z,23.80
2018-03-30T03:54:03.044Z,22.30
2018-03-30T03:56:38.699Z,18.87
2018-03-30T03:59:13.452Z,20.83
2018-03-30T04:01:48.579Z,19.73
2018-03-30T04:04:22.712Z,23.30
2018-03-30T04:06:57.822Z,18.50
2018-03-30T04:09:31.663Z,20.37
2018-03-30T04:12:05.842Z,23.23
2018-03-30T04:14:40.395Z,22.00
2018-03-30T04:17:15.796Z,21.80
2018-03-30T04:19:50.329Z,20.27
2018-03-30T04:22:25.359Z,21.30
2018-03-30T04:25:00.088Z,20.30
2018-03-30T04:27:34.111Z,22.57
2018-03-30T04:30:08.522Z,24.47
2018-03-30T04:32:43.361Z,18.63
2018-03-30T04:35:17.990Z,19.87
2018-03-30T04:37:51.773Z,19.17
2018-03-30T04:40:25.978Z,17.17
2018-03-30T04:43:00.543Z,19.30
2018-03-30T04:45:35.867Z,17.03
2018-03-30T04:48:10.474Z,18.37
2018-03-30T04:50:45.392Z,21.90
2018-03-30T04:53:19.832Z,17.27
2018-03-30T04:55:53.639Z,19.20
2018-03-30T04:58:27.743Z,19.13
2018-03-30T05:01:02.266Z,19.37
2018-03-30T05:03:36.977Z,18.03
2018-03-30T05:06:11.507Z,20.37
2018-03-30T05:08:46.132Z,19.47
2018-03-30T05:11:20.031Z,18.80
2018-03-30T05:13:54.430Z,26.70
2018-03-30T05:16:29.097Z,23.03
2018-03-30T05:19:03.004Z,21.23
2018-03-30T05:21:37.913Z,22.00
2018-03-30T05:24:11.840Z,21.53
2018-03-30T05:26:47.175Z,20.30
2018-03-30T05:29:20.971Z,18.73
2018-03-30T05:31:56.408Z,18.97
2018-03-30T05:34:29.977Z,19.07
2018-03-30T05:37:08.338Z,17.93
2018-03-30T05:39:42.035Z,16.47
2018-03-30T05:42:17.887Z,17.17
2018-03-30T05:44:51.786Z,17.17
2018-03-30T05:47:26.516Z,18.67
2018-03-30T05:50:01.152Z,22.43
2018-03-30T05:52:35.659Z,18.10
2018-03-30T05:55:10.280Z,17.77
2018-03-30T05:57:44.708Z,15.47
2018-03-30T06:00:19.152Z,15.23
2018-03-30T06:02:53.514Z,20.80
2018-03-30T06:05:27.446Z,19.83
2018-03-30T06:08:02.017Z,18.40
2018-03-30T06:10:36.305Z,20.80
2018-03-30T06:13:10.600Z,20.47
2018-03-30T06:15:45.370Z,23.67
2018-03-30T06:18:20.283Z,21.90
2018-03-30T06:20:55.419Z,22.57
2018-03-30T06:23:29.527Z,19.47
2018-03-30T06:26:03.843Z,19.93
2018-03-30T06:28:38.553Z,21.43
2018-03-30T06:31:13.591Z,20.27
2018-03-30T06:33:48.023Z,21.17
2018-03-30T06:36:23.275Z,26.20
2018-03-30T06:38:56.968Z,21.27
2018-03-30T06:41:30.757Z,25.03
2018-03-30T06:44:06.433Z,22.33
2018-03-30T06:46:40.330Z,22.43
2018-03-30T06:49:15.451Z,26.43
2018-03-30T06:51:49.849Z,22.63
2018-03-30T06:54:24.404Z,24.47
2018-03-30T06:56:59.227Z,22.90
2018-03-30T06:59:34.057Z,23.13
2018-03-30T07:02:10.120Z,19.20
2018-03-30T07:04:44.269Z,18.97
2018-03-30T07:07:18.846Z,19.60
2018-03-30T07:09:53.855Z,20.20
2018-03-30T07:12:29.309Z,21.27
2018-03-30T07:15:03.539Z,18.50
2018-03-30T07:17:37.952Z,19.27
2018-03-30T07:20:12.567Z,19.03
2018-03-30T07:22:47.267Z,21.50
2018-03-30T07:25:21.311Z,21.80
2018-03-30T07:27:56.557Z,22.10
2018-03-30T07:30:30.453Z,23.27
2018-03-30T07:33:04.556Z,18.20
2018-03-30T07:35:39.276Z,20.07
2018-03-30T07:38:13.081Z,18.67
2018-03-30T07:40:46.978Z,19.80
2018-03-30T07:43:20.810Z,20.53
2018-03-30T07:45:56.009Z,18.90
2018-03-30T07:48:31.067Z,20.70
2018-03-30T07:51:05.496Z,18.83
2018-03-30T07:53:39.398Z,17.90
2018-03-30T07:56:13.290Z,17.07
2018-03-30T07:58:48.055Z,15.80
2018-03-30T08:01:22.679Z,17.70
2018-03-30T08:03:56.846Z,15.97
2018-03-30T08:19:18.313Z,14.37
2018-03-30T08:21:51.955Z,12.17
2018-03-30T08:24:26.095Z,13.10
2018-03-30T08:27:01.209Z,12.13
2018-03-30T08:29:36.038Z,12.00
2018-03-30T08:32:10.984Z,8.77
2018-03-30T08:34:45.883Z,8.57
2018-03-30T08:37:21.466Z,8.93
2018-03-30T08:39:55.695Z,9.77
2018-03-30T08:42:29.600Z,8.07
2018-03-30T08:45:04.621Z,8.07
2018-03-30T08:47:40.361Z,8.27
2018-03-30T08:50:15.686Z,7.10
2018-03-30T08:52:50.926Z,8.13
2018-03-30T08:55:25.959Z,6.40
2018-03-30T08:58:00.382Z,5.70
2018-03-30T09:00:34.993Z,4.77
2018-03-30T09:03:09.004Z,3.67
2018-03-30T09:05:43.264Z,3.67
2018-03-30T09:08:18.086Z,3.40
2018-03-30T09:10:52.068Z,3.40
2018-03-30T09:13:26.832Z,2.73
2018-03-30T09:16:00.631Z,2.60
2018-03-30T09:18:34.713Z,2.70
2018-03-30T09:21:09.228Z,2.80
2018-03-30T09:23:43.016Z,2.70
2018-03-30T09:26:16.945Z,2.37
2018-03-30T09:28:50.856Z,2.10
2018-03-30T09:31:27.516Z,1.90
2018-03-30T09:34:02.698Z,1.77
2018-03-30T09:36:37.005Z,1.87
2018-03-30T09:39:11.432Z,2.20
2018-03-30T09:41:47.827Z,2.40
2018-03-30T09:44:22.807Z,2.40
2018-03-30T09:46:57.411Z,2.77
2018-03-30T09:49:31.111Z,1.80
2018-03-30T09:52:05.515Z,2.30
2018-03-30T09:54:40.362Z,2.20
2018-03-30T09:57:16.321Z,2.20
2018-03-30T09:59:50.943Z,1.90
2018-03-30T10:02:28.939Z,2.10
2018-03-30T10:05:02.991Z,1.90
2018-03-30T10:07:38.388Z,1.20
2018-03-30T10:10:12.946Z,1.40
2018-03-30T10:12:47.735Z,1.87
2018-03-30T10:15:22.460Z,1.87
2018-03-30T10:17:56.808Z,1.50
2018-03-30T10:20:30.592Z,1.80
2018-03-30T10:23:05.945Z,3.10
2018-03-30T10:25:40.459Z,1.60
2018-03-30T10:28:14.769Z,1.57
2018-03-30T10:30:49.788Z,1.90
2018-03-30T10:33:24.432Z,1.30
2018-03-30T10:35:59.250Z,3.73
2018-03-30T10:38:34.205Z,1.53
2018-03-30T10:41:09.220Z,1.47
2018-03-30T10:43:42.920Z,1.40
2018-03-30T10:46:18.113Z,1.60
2018-03-30T10:48:51.962Z,1.50
2018-03-30T10:51:26.299Z,1.70
2018-03-30T10:54:02.518Z,2.37
2018-03-30T10:56:38.804Z,2.33
2018-03-30T10:59:13.340Z,1.37
2018-03-30T11:01:47.752Z,1.40
2018-03-30T11:04:21.673Z,1.57
2018-03-30T11:06:56.428Z,1.50
2018-03-30T11:09:30.617Z,1.40
2018-03-30T11:12:05.522Z,1.57
2018-03-30T11:14:40.172Z,1.43
2018-03-30T11:17:14.165Z,1.70
2018-03-30T11:19:50.316Z,1.47
2018-03-30T11:22:27.456Z,1.30
2018-03-30T11:25:03.240Z,1.20
2018-03-30T11:27:38.917Z,1.60
2018-03-30T11:30:15.584Z,1.47
2018-03-30T11:32:49.288Z,1.53
2018-03-30T11:35:23.185Z,1.50
2018-03-30T11:37:58.120Z,1.50
2018-03-30T11:40:32.014Z,2.00
2018-03-30T11:43:06.935Z,1.80
2018-03-30T11:45:43.310Z,1.73
2018-03-30T11:48:17.459Z,1.93
2018-03-30T11:50:51.386Z,1.70
2018-03-30T11:53:26.568Z,2.10
2018-03-30T11:56:01.327Z,2.10
2018-03-30T11:58:35.707Z,2.00
2018-03-30T12:01:10.341Z,2.00
2018-03-30T12:03:44.264Z,1.70
2018-03-30T12:06:18.883Z,1.90
2018-03-30T12:08:53.654Z,1.73
2018-03-30T12:11:27.899Z,1.93
2018-03-30T12:14:01.515Z,1.80
2018-03-30T12:16:36.287Z,1.93
2018-03-30T12:19:10.173Z,2.00
2018-03-30T12:21:44.147Z,1.90
2018-03-30T12:24:18.946Z,2.03
2018-03-30T12:26:52.578Z,2.13
2018-03-30T12:29:26.473Z,2.20
2018-03-30T12:32:00.803Z,1.80
2018-03-30T12:34:35.603Z,1.90
2018-03-30T12:37:10.555Z,2.10
2018-03-30T12:39:45.391Z,2.37
2018-03-30T12:42:19.300Z,2.83
2018-03-30T12:44:54.524Z,2.60
2018-03-30T12:47:28.432Z,3.27
2018-03-30T12:50:02.366Z,3.10
2018-03-30T12:52:36.346Z,3.53
2018-03-30T12:55:11.168Z,3.47
2018-03-30T12:57:45.303Z,3.43
2018-03-30T13:00:19.813Z,5.67
2018-03-30T13:02:53.620Z,3.53
2018-03-30T13:05:28.670Z,4.10
2018-03-30T13:08:02.565Z,3.77
2018-03-30T13:10:38.110Z,5.73
2018-03-30T13:13:13.658Z,3.60
2018-03-30T13:15:48.160Z,3.90
2018-03-30T13:18:21.892Z,3.97
2018-03-30T13:20:55.691Z,3.30
2018-03-30T13:23:30.326Z,3.23
2018-03-30T13:26:04.926Z,3.77
2018-03-30T13:28:38.803Z,3.77
2018-03-30T13:31:13.344Z,3.07
2018-03-30T13:33:48.176Z,2.47
2018-03-30T13:36:21.984Z,2.70
2018-03-30T13:38:56.390Z,2.90
2018-03-30T13:41:30.824Z,2.17
2018-03-30T13:44:04.824Z,2.60
2018-03-30T13:46:40.413Z,2.17
2018-03-30T13:49:14.571Z,2.53
2018-03-30T13:51:57.311Z,2.80
2018-03-30T13:54:35.831Z,2.30
2018-03-30T13:57:12.503Z,2.60
2018-03-30T13:59:48.245Z,2.43
2018-03-30T14:02:39.152Z,2.33
2018-03-30T14:05:15.720Z,2.27
2018-03-30T14:21:23.325Z,1.67
2018-03-30T14:23:58.642Z,1.90
2018-03-30T14:26:46.206Z,1.23
2018-03-30T14:29:26.935Z,2.50
2018-03-30T14:45:58.447Z,1.80
2018-03-30T14:48:33.915Z,2.40
2018-03-30T14:51:27.173Z,2.20
2018-03-30T14:54:05.929Z,2.00
2018-03-30T14:56:41.416Z,2.10
2018-03-30T14:59:19.663Z,2.30
2018-03-30T15:01:57.575Z,2.10
2018-03-30T15:04:48.402Z,2.23
2018-03-30T15:07:22.820Z,2.43
2018-03-30T15:10:01.179Z,2.83
2018-03-30T15:12:43.891Z,2.00
2018-03-30T15:15:25.920Z,2.33
2018-03-30T15:18:16.823Z,2.20
2018-03-30T15:34:19.659Z,2.77
2018-03-30T15:36:56.083Z,6.97
2018-03-30T15:39:30.684Z,3.20
2018-03-30T15:42:07.596Z,2.83
2018-03-30T15:44:44.160Z,3.23
2018-03-30T15:47:18.973Z,2.67
2018-03-30T16:02:47.675Z,2.40
2018-03-30T16:05:21.768Z,2.53
2018-03-30T16:07:56.587Z,2.60
2018-03-30T16:10:34.218Z,2.10
2018-03-30T16:13:08.408Z,2.33
2018-03-30T16:15:42.997Z,1.57
2018-03-30T16:18:16.763Z,1.90
2018-03-30T16:20:50.811Z,1.90
2018-03-30T16:23:25.660Z,1.77
2018-03-30T16:25:58.959Z,1.60
2018-03-30T16:28:32.818Z,1.70
2018-03-30T16:31:06.640Z,1.67
2018-03-30T16:33:39.643Z,1.67
2018-03-30T16:36:13.626Z,1.60
2018-03-30T16:38:46.720Z,1.50
2018-03-30T16:41:19.948Z,1.43
2018-03-30T16:43:53.282Z,1.60
2018-03-30T16:46:26.556Z,1.37
2018-03-30T16:49:01.431Z,1.50
2018-03-30T16:51:34.603Z,1.37
2018-03-30T16:54:07.876Z,1.90
2018-03-30T16:56:42.790Z,1.53
2018-03-30T16:59:16.914Z,1.40
2018-03-30T17:01:51.807Z,1.67
2018-03-30T17:04:25.760Z,1.80
2018-03-30T17:06:58.931Z,1.30
2018-03-30T17:09:32.219Z,1.40
2018-03-30T17:12:05.467Z,1.30
2018-03-30T17:14:38.707Z,1.20
2018-03-30T17:17:11.804Z,1.37
2018-03-30T17:19:44.875Z,2.07
2018-03-30T17:22:18.047Z,1.40
2018-03-30T17:24:51.266Z,2.93
2018-03-30T17:27:25.505Z,1.47
2018-03-30T17:29:59.538Z,1.60
2018-03-30T17:32:33.531Z,1.20
2018-03-30T17:35:06.940Z,9.27
2018-03-30T17:37:40.099Z,3.90
2018-03-30T17:40:14.155Z,3.23
2018-03-30T17:42:47.375Z,5.17
2018-03-30T17:45:20.963Z,3.10
2018-03-30T17:47:54.165Z,3.23
2018-03-30T17:50:27.696Z,3.50
2018-03-30T17:53:01.008Z,4.13
2018-03-30T17:55:35.267Z,3.20
2018-03-30T17:58:09.904Z,3.77
2018-03-30T18:00:43.433Z,2.80
2018-03-30T18:03:18.743Z,3.67
2018-03-30T18:05:53.745Z,3.80
2018-03-30T18:08:29.794Z,3.93
2018-03-30T18:11:03.432Z,5.27
2018-03-30T18:13:47.413Z,4.77
2018-03-30T18:16:21.892Z,10.83
2018-03-30T18:18:56.500Z,9.00
2018-03-30T18:21:31.347Z,7.70
2018-03-30T18:24:05.453Z,6.20
2018-03-30T18:26:38.911Z,5.47
2018-03-30T18:29:13.052Z,6.67
2018-03-30T18:31:46.216Z,6.43
2018-03-30T18:34:19.849Z,6.90
2018-03-30T18:36:53.885Z,4.40
2018-03-30T18:39:27.349Z,6.47
2018-03-30T18:42:00.539Z,9.07
2018-03-30T18:44:34.451Z,11.90
2018-03-30T18:47:07.722Z,10.40
2018-03-30T18:49:40.855Z,7.73
2018-03-30T18:52:14.301Z,7.17
2018-03-30T18:54:47.371Z,8.97
2018-03-30T18:57:21.542Z,6.73
2018-03-30T18:59:55.626Z,8.50
2018-03-30T19:02:28.854Z,8.93
2018-03-30T19:05:02.134Z,8.13
2018-03-30T19:07:35.433Z,8.47
2018-03-30T19:10:09.135Z,9.53
2018-03-30T19:12:43.113Z,9.70
2018-03-30T19:15:17.914Z,7.53
2018-03-30T19:17:51.448Z,7.13
2018-03-30T19:20:26.134Z,8.87
2018-03-30T19:23:01.148Z,8.83
2018-03-30T19:25:35.179Z,7.90
2018-03-30T19:28:09.231Z,11.57
2018-03-30T19:30:42.752Z,8.60
2018-03-30T19:33:16.777Z,7.77
2018-03-30T19:35:50.332Z,8.40
2018-03-30T19:38:24.870Z,10.17
2018-03-30T19:40:59.257Z,12.63
2018-03-30T19:43:33.182Z,8.87
2018-03-30T19:46:08.117Z,9.27
2018-03-30T19:48:42.240Z,10.07
2018-03-30T19:51:16.714Z,9.13
2018-03-30T19:53:50.554Z,9.07
2018-03-30T19:56:24.654Z,9.90
2018-03-30T19:58:58.609Z,9.17
2018-03-30T20:01:34.046Z,9.63
2018-03-30T20:04:08.540Z,12.00
2018-03-30T20:06:42.173Z,13.67
2018-03-30T20:09:17.361Z,15.53
2018-03-30T20:11:50.588Z,13.83
2018-03-30T20:14:23.866Z,15.40
2018-03-30T20:16:57.583Z,13.17
2018-03-30T20:19:32.237Z,14.87
2018-03-30T20:22:05.954Z,13.27
2018-03-30T20:24:39.410Z,15.40
2018-03-30T20:27:13.114Z,14.90
2018-03-30T20:29:47.019Z,15.10
2018-03-30T20:32:21.022Z,14.30
2018-03-30T20:34:54.415Z,14.27
2018-03-30T20:37:28.507Z,13.70
2018-03-30T20:40:02.740Z,13.60
2018-03-30T20:42:37.702Z,12.53
2018-03-30T20:45:12.768Z,12.67
2018-03-30T20:47:47.498Z,13.30
2018-03-30T20:50:22.267Z,13.47
2018-03-30T20:52:55.432Z,14.13
2018-03-30T20:55:28.706Z,15.63
2018-03-30T20:58:02.113Z,13.03
2018-03-30T21:00:37.437Z,13.47
2018-03-30T21:03:11.661Z,13.73
2018-03-30T21:05:46.778Z,13.77
2018-03-30T21:08:20.465Z,11.80
2018-03-30T21:10:54.467Z,11.87
2018-03-30T21:13:30.072Z,14.40
2018-03-30T21:16:04.077Z,9.90
2018-03-30T21:18:38.610Z,9.70
2018-03-30T21:21:13.831Z,10.03
2018-03-30T21:23:48.370Z,8.10
2018-03-30T21:26:21.855Z,8.73
2018-03-30T21:28:55.494Z,9.97
2018-03-30T21:31:30.386Z,9.47
2018-03-30T21:34:03.886Z,9.30
2018-03-30T21:36:37.818Z,11.00
2018-03-30T21:39:11.900Z,11.53
2018-03-30T21:41:46.091Z,10.67
2018-03-30T21:44:20.001Z,12.73
2018-03-30T21:46:53.984Z,12.53
2018-03-30T21:49:27.326Z,12.63
2018-03-30T21:52:00.629Z,14.17
2018-03-30T21:54:34.285Z,13.77
2018-03-30T21:57:07.612Z,14.30
2018-03-30T21:59:41.663Z,30.00
2018-03-30T22:02:16.176Z,18.40
2018-03-30T22:04:50.224Z,15.97
2018-03-30T22:07:23.861Z,17.50
2018-03-30T22:09:58.354Z,17.17
2018-03-30T22:12:31.495Z,13.70
2018-03-30T22:15:05.984Z,13.50
2018-03-30T22:17:40.623Z,15.07
2018-03-30T22:20:14.706Z,12.33
2018-03-30T22:22:48.727Z,13.13
2018-03-30T22:25:21.911Z,12.40
2018-03-30T22:27:56.157Z,12.60
2018-03-30T22:30:29.548Z,12.43
2018-03-30T22:33:02.944Z,9.60
2018-03-30T22:35:36.527Z,12.20
2018-03-30T22:38:09.821Z,11.33
2018-03-30T22:40:43.237Z,10.17
2018-03-30T22:43:17.108Z,12.07
2018-03-30T22:45:51.033Z,10.90
2018-03-30T22:48:24.628Z,10.70
2018-03-30T22:50:58.756Z,12.23
2018-03-30T22:53:32.167Z,10.50
2018-03-30T22:56:06.856Z,9.93
2018-03-30T22:58:40.453Z,10.47
2018-03-30T23:01:14.292Z,13.10
2018-03-30T23:03:47.863Z,10.77
2018-03-30T23:06:21.868Z,10.03
2018-03-30T23:08:56.777Z,9.83
2018-03-30T23:11:31.806Z,11.03
2018-03-30T23:14:07.392Z,10.17
2018-03-30T23:16:41.899Z,9.93
2018-03-30T23:19:15.705Z,10.03
2018-03-30T23:21:50.632Z,9.80
2018-03-30T23:24:25.031Z,10.70
2018-03-30T23:26:58.462Z,10.83
2018-03-30T23:29:31.745Z,10.30
2018-03-30T23:32:05.255Z,9.30
2018-03-30T23:34:38.938Z,10.57
2018-03-30T23:37:13.483Z,10.27
2018-03-30T23:39:47.448Z,9.50
2018-03-30T23:42:21.075Z,11.57
2018-03-30T23:44:55.202Z,11.27
2018-03-30T23:47:29.298Z,10.57
2018-03-30T23:50:02.709Z,9.43
2018-03-30T23:52:36.221Z,11.13
2018-03-30T23:55:09.790Z,10.40
2018-03-30T23:57:43.083Z,11.47
